Time;durP1;ratioP1;P1;durP2;ratioP2;P2;SDS_P1;SDS_P2;PMS_P1;PMS_P2;Temp;Humidity;BMP_temperature;BMP_pressure;BME280_temperature;BME280_humidity;BME280_pressure;Samples;Min_cycle;Max_cycle;Signal;HPM_P1;HPM_P2
2023/07/24 00:01:49;;;;;;;;;;;;;;;16.22;100.00;100490.13;5033557;28;20007;-73
2023/07/24 00:04:14;;;;;;;;;;;;;;;16.18;100.00;100486.16;5033906;28;19952;-73
2023/07/24 00:06:39;;;;;;;;;;;;;;;16.17;100.00;100481.81;5033271;28;19924;-73
2023/07/24 00:09:04;;;;;;;;;;;;;;;16.14;100.00;100465.25;5033166;28;20365;-74
2023/07/24 00:11:30;;;;;;;;;;;;;;;16.13;100.00;100466.28;5033171;28;20422;-74
2023/07/24 00:13:55;;;;;;;;;;;;;;;16.12;100.00;100478.88;5032997;28;19917;-73
2023/07/24 00:16:20;;;;;;;;;;;;;;;16.16;100.00;100479.31;4999284;28;19917;-75
2023/07/24 00:18:45;;;;;;;;;;;;;;;16.21;100.00;100463.47;5033160;28;19921;-76
2023/07/24 00:21:13;;;;;;;;;;;;;;;16.20;100.00;100459.97;5015848;28;20389;-74
2023/07/24 00:23:38;;;;;;;;;;;;;;;16.19;100.00;100474.41;5015957;28;19917;-75
2023/07/24 00:26:03;;;;;;;;;;;;;;;16.19;100.00;100469.03;5033032;28;19924;-74
2023/07/24 00:28:28;;;;;;;;;;;;;;;16.15;100.00;100461.53;5033705;28;19917;-75
2023/07/24 00:30:54;;;;;;;;;;;;;;;16.10;100.00;100455.91;5031983;28;19919;-75
2023/07/24 00:33:19;;;;;;;;;;;;;;;16.09;100.00;100448.84;5033328;28;19974;-75
2023/07/24 00:35:44;;;;;;;;;;;;;;;16.09;100.00;100455.06;5033003;28;20332;-74
2023/07/24 00:38:09;;;;;;;;;;;;;;;16.09;100.00;100455.06;5033553;28;20315;-75
2023/07/24 00:40:34;;;;;;;;;;;;;;;16.07;100.00;100448.22;5033612;28;20349;-75
2023/07/24 00:43:00;;;;;;;;;;;;;;;16.04;100.00;100444.88;5033459;28;20411;-75
2023/07/24 00:45:25;;;;;;;;;;;;;;;16.02;100.00;100446.09;5033568;28;20016;-75
2023/07/24 00:47:51;;;;;;;;;;;;;;;16.03;100.00;100439.69;5034006;28;19983;-75
2023/07/24 00:50:16;;;;;;;;;;;;;;;16.03;100.00;100443.22;5033418;28;19917;-75
2023/07/24 00:52:42;;;;;;;;;;;;;;;16.08;100.00;100437.31;5033177;28;19961;-74
2023/07/24 00:55:08;;;;;;;;;;;;;;;16.10;100.00;100432.56;5032898;28;20365;-75
2023/07/24 00:57:34;;;;;;;;;;;;;;;16.11;100.00;100425.34;5035272;28;19966;-76
2023/07/24 00:59:59;;;;;;;;;;;;;;;16.09;100.00;100430.91;5036246;28;19949;-74
2023/07/24 01:02:25;;;;;;;;;;;;;;;16.09;100.00;100443.50;5036304;28;19913;-73
2023/07/24 01:04:50;;;;;;;;;;;;;;;16.05;100.00;100435.00;5036505;28;20384;-75
2023/07/24 01:07:16;;;;;;;;;;;;;;;16.03;100.00;100437.00;5037059;28;19965;-73
2023/07/24 01:09:41;;;;;;;;;;;;;;;16.02;100.00;100436.19;5036158;28;19925;-73
2023/07/24 01:12:13;;;;;;;;;;;;;;;16.01;100.00;100437.19;5036323;28;19917;-74
2023/07/24 01:14:38;;;;;;;;;;;;;;;16.02;100.00;100436.19;5036889;28;19983;-73
2023/07/24 01:17:07;;;;;;;;;;;;;;;16.02;100.00;100430.81;5036485;28;20361;-72
2023/07/24 01:19:37;;;;;;;;;;;;;;;15.99;100.00;100431.19;5019339;28;20226;-73
2023/07/24 01:22:03;;;;;;;;;;;;;;;15.96;100.00;100426.19;5036130;28;19935;-74
2023/07/24 01:24:47;;;;;;;;;;;;;;;15.95;100.00;100426.38;5018487;28;20280;-73
2023/07/24 01:27:18;;;;;;;;;;;;;;;15.95;100.00;100423.69;5036577;28;19920;-74
2023/07/24 01:29:43;;;;;;;;;;;;;;;15.95;100.00;100418.34;5018418;28;19912;-73
2023/07/24 01:32:09;;;;;;;;;;;;;;;15.98;100.00;100412.59;5035930;28;20242;-74
2023/07/24 01:34:34;;;;;;;;;;;;;;;16.02;100.00;100413.91;5001821;28;19919;-73
2023/07/24 01:36:59;;;;;;;;;;;;;;;16.07;100.00;100424.06;5035945;28;19923;-74
2023/07/24 01:39:25;;;;;;;;;;;;;;;16.09;100.00;100419.34;5036007;28;20274;-74
2023/07/24 01:41:50;;;;;;;;;;;;;;;16.10;100.00;100416.47;5036208;28;20369;-74
2023/07/24 01:44:15;;;;;;;;;;;;;;;16.11;100.00;100415.47;5035437;28;20258;-74
2023/07/24 01:46:40;;;;;;;;;;;;;;;16.09;100.00;100408.59;5036399;28;20007;-73
2023/07/24 01:49:06;;;;;;;;;;;;;;;16.07;100.00;100410.66;5035742;28;19921;-74
2023/07/24 01:51:31;;;;;;;;;;;;;;;16.06;100.00;100407.13;5018127;28;19917;-75
2023/07/24 01:53:56;;;;;;;;;;;;;;;16.04;100.00;100407.31;5035622;28;20358;-77
2023/07/24 01:56:21;;;;;;;;;;;;;;;16.02;100.00;100408.53;5035568;28;19921;-74
2023/07/24 01:58:47;;;;;;;;;;;;;;;15.99;100.00;100412.41;5035398;28;20324;-74
2023/07/24 02:01:12;;;;;;;;;;;;;;;15.97;100.00;100403.72;5035440;28;19979;-74
2023/07/24 02:03:39;;;;;;;;;;;;;;;15.95;100.00;100402.22;5035185;28;19924;-74
2023/07/24 02:06:04;;;;;;;;;;;;;;;15.94;100.00;100390.66;5035068;28;20316;-74
2023/07/24 02:08:29;;;;;;;;;;;;;;;15.95;100.00;100396.88;5034275;28;19927;-74
2023/07/24 02:10:55;;;;;;;;;;;;;;;15.95;100.00;100388.81;5035375;28;19924;-73
2023/07/24 02:13:20;;;;;;;;;;;;;;;15.95;100.00;100386.13;5034988;28;19924;-73
2023/07/24 02:15:45;;;;;;;;;;;;;;;15.93;100.00;100385.47;5035116;28;20400;-73
2023/07/24 02:18:10;;;;;;;;;;;;;;;15.90;100.00;100385.84;5035099;28;20350;-74
2023/07/24 02:20:36;;;;;;;;;;;;;;;15.82;100.00;100376.91;5034987;28;20003;-74
2023/07/24 02:23:01;;;;;;;;;;;;;;;15.79;100.00;100384.47;5035241;28;19913;-74
2023/07/24 02:25:26;;;;;;;;;;;;;;;15.77;100.00;100389.16;5035117;28;19928;-74
2023/07/24 02:27:51;;;;;;;;;;;;;;;15.78;100.00;100382.78;5017139;28;19924;-73
2023/07/24 02:30:17;;;;;;;;;;;;;;;15.79;100.00;100377.22;5000821;28;19924;-73
2023/07/24 02:32:42;;;;;;;;;;;;;;;15.83;100.00;100375.84;5035153;28;19917;-73
2023/07/24 02:35:07;;;;;;;;;;;;;;;15.86;100.00;100374.66;5034805;28;19917;-74
2023/07/24 02:37:32;;;;;;;;;;;;;;;15.86;100.00;100366.63;5017844;28;20011;-73
2023/07/24 02:39:58;;;;;;;;;;;;;;;15.88;100.00;100374.47;5035341;28;19940;-74
2023/07/24 02:42:23;;;;;;;;;;;;;;;15.89;100.00;100365.41;5034697;28;20270;-74
2023/07/24 02:44:48;;;;;;;;;;;;;;;15.89;100.00;100352.00;5034653;28;20297;-73
2023/07/24 02:47:13;;;;;;;;;;;;;;;15.91;100.00;100361.50;5034597;28;20254;-73
2023/07/24 02:49:39;;;;;;;;;;;;;;;15.91;100.00;100361.50;5016846;28;19913;-73
2023/07/24 02:52:04;;;;;;;;;;;;;;;15.93;100.00;100369.38;5034121;28;19917;-75
2023/07/24 02:54:29;;;;;;;;;;;;;;;15.92;100.00;100365.03;5034736;28;19975;-73
2023/07/24 02:56:55;;;;;;;;;;;;;;;15.92;100.00;100340.91;5034532;28;19917;-72
2023/07/24 02:59:20;;;;;;;;;;;;;;;15.91;100.00;100336.53;5034128;28;19962;-73
2023/07/24 03:01:45;;;;;;;;;;;;;;;15.88;100.00;100342.28;5034152;28;19927;-73
2023/07/24 03:04:10;;;;;;;;;;;;;;;15.85;100.00;100357.75;5017350;28;20008;-73
2023/07/24 03:06:36;;;;;;;;;;;;;;;15.82;100.00;100352.75;5034836;28;19920;-73
2023/07/24 03:09:01;;;;;;;;;;;;;;;15.82;100.00;100350.06;5034254;28;19917;-73
2023/07/24 03:11:26;;;;;;;;;;;;;;;15.84;100.00;100360.63;5034197;28;19967;-73
2023/07/24 03:13:52;;;;;;;;;;;;;;;15.80;100.00;100362.81;5034409;28;19920;-74
2023/07/24 03:16:19;;;;;;;;;;;;;;;15.80;100.00;100370.03;5034110;28;19917;-74
2023/07/24 03:18:44;;;;;;;;;;;;;;;15.78;100.00;100362.19;5034051;28;19917;-74
2023/07/24 03:21:09;;;;;;;;;;;;;;;15.73;100.00;100364.53;5033693;28;19959;-74
2023/07/24 03:23:35;;;;;;;;;;;;;;;15.71;100.00;100357.72;5033814;28;20400;-74
2023/07/24 03:26:00;;;;;;;;;;;;;;;15.67;100.00;100359.91;5034337;28;19920;-73
2023/07/24 03:28:26;;;;;;;;;;;;;;;15.65;100.00;100359.28;5033595;28;20388;-74
2023/07/24 03:30:52;;;;;;;;;;;;;;;15.61;100.00;100353.44;5033939;28;19920;-73
2023/07/24 03:33:17;;;;;;;;;;;;;;;15.58;100.00;100352.97;5033807;28;20353;-74
2023/07/24 03:35:42;;;;;;;;;;;;;;;15.58;100.00;100347.63;5034094;28;20394;-74
2023/07/24 03:38:07;;;;;;;;;;;;;;;15.58;100.00;100352.97;5033541;28;19923;-73
2023/07/24 03:40:33;;;;;;;;;;;;;;;15.57;100.00;100357.53;5034440;28;19924;-72
2023/07/24 03:42:58;;;;;;;;;;;;;;;15.56;100.00;100355.03;5033630;28;20365;-72
2023/07/24 03:45:23;;;;;;;;;;;;;;;15.56;100.00;100350.47;5034054;28;19927;-73
2023/07/24 03:47:48;;;;;;;;;;;;;;;15.57;100.00;100348.63;5033478;28;19917;-74
2023/07/24 03:50:14;;;;;;;;;;;;;;;15.61;100.00;100348.06;5033703;28;19921;-74
2023/07/24 03:52:39;;;;;;;;;;;;;;;15.63;100.00;100346.06;5016619;28;20051;-73
2023/07/24 03:55:04;;;;;;;;;;;;;;;15.67;100.00;100350.03;5033719;28;19920;-73
2023/07/24 03:57:30;;;;;;;;;;;;;;;15.71;100.00;100352.34;5033998;28;20437;-72
2023/07/24 03:59:55;;;;;;;;;;;;;;;15.75;100.00;100353.63;5033414;28;19917;-73
2023/07/24 04:02:20;;;;;;;;;;;;;;;15.78;100.00;100353.28;5015835;28;19960;-72
2023/07/24 04:04:45;;;;;;;;;;;;;;;15.82;100.00;100350.06;5034173;28;19924;-73
2023/07/24 04:07:11;;;;;;;;;;;;;;;15.84;100.00;100350.72;5033838;28;19936;-73
2023/07/24 04:09:36;;;;;;;;;;;;;;;15.86;100.00;100348.66;5033462;28;19970;-73
2023/07/24 04:12:01;;;;;;;;;;;;;;;15.90;100.00;100350.97;5033513;28;19956;-73
2023/07/24 04:14:26;;;;;;;;;;;;;;;15.90;100.00;100342.91;5033341;28;19917;-73
2023/07/24 04:16:52;;;;;;;;;;;;;;;15.89;100.00;100341.28;5033789;28;20391;-74
2023/07/24 04:19:17;;;;;;;;;;;;;;;15.85;100.00;100346.16;5033482;28;19917;-74
2023/07/24 04:21:42;;;;;;;;;;;;;;;15.82;100.00;100342.03;5033589;28;19917;-72
2023/07/24 04:24:08;;;;;;;;;;;;;;;15.83;100.00;100343.66;5033398;28;20356;-73
2023/07/24 04:26:33;;;;;;;;;;;;;;;15.83;100.00;100354.41;5033577;28;19924;-74
2023/07/24 04:28:58;;;;;;;;;;;;;;;15.85;100.00;100346.16;5033650;28;20410;-73
2023/07/24 04:31:23;;;;;;;;;;;;;;;15.86;100.00;100351.34;5033947;28;20365;-73
2023/07/24 04:33:49;;;;;;;;;;;;;;;15.89;100.00;100347.47;5037080;28;19964;-73
2023/07/24 04:36:14;;;;;;;;;;;;;;;15.93;100.00;100350.59;5037113;28;19913;-72
2023/07/24 04:38:39;;;;;;;;;;;;;;;15.97;100.00;100352.75;5036988;28;19924;-72
2023/07/24 04:41:04;;;;;;;;;;;;;;;16.00;100.00;100354.19;5037018;28;19963;-73
2023/07/24 04:43:29;;;;;;;;;;;;;;;16.01;100.00;100343.28;5019014;28;19966;-72
2023/07/24 04:45:55;;;;;;;;;;;;;;;16.06;100.00;100350.78;5037243;28;20006;-72
2023/07/24 04:48:20;;;;;;;;;;;;;;;16.11;100.00;100353.75;5003090;28;19917;-74
2023/07/24 04:50:45;;;;;;;;;;;;;;;16.14;100.00;100353.38;5036904;28;20000;-73
2023/07/24 04:53:10;;;;;;;;;;;;;;;16.16;100.00;100353.19;5036818;28;20002;-73
2023/07/24 04:55:36;;;;;;;;;;;;;;;16.18;100.00;100349.28;5019552;28;19921;-73
2023/07/24 04:58:01;;;;;;;;;;;;;;;16.22;100.00;100347.06;5037017;28;19957;-74
2023/07/24 05:00:26;;;;;;;;;;;;;;;16.27;100.00;100347.34;5018838;28;19974;-73
2023/07/24 05:02:52;;;;;;;;;;;;;;;16.33;100.00;100356.47;5037183;28;19920;-73
2023/07/24 05:05:17;;;;;;;;;;;;;;;16.35;100.00;100352.56;5036878;28;19917;-74
2023/07/24 05:07:42;;;;;;;;;;;;;;;16.40;100.00;100349.31;5036164;28;19913;-71
2023/07/24 05:10:08;;;;;;;;;;;;;;;16.42;100.00;100347.31;5036791;28;20011;-73
2023/07/24 05:12:33;;;;;;;;;;;;;;;16.47;100.00;100344.03;5036070;28;19917;-73
2023/07/24 05:14:58;;;;;;;;;;;;;;;16.46;100.00;100345.88;5036573;28;19924;-73
2023/07/24 05:17:23;;;;;;;;;;;;;;;16.49;100.00;100347.38;5036297;28;19917;-74
2023/07/24 05:19:49;;;;;;;;;;;;;;;16.52;100.00;100347.81;5036353;28;20325;-74
2023/07/24 05:22:14;;;;;;;;;;;;;;;16.53;100.00;100356.72;5018556;28;19924;-74
2023/07/24 05:24:39;;;;;;;;;;;;;;;16.54;100.00;100353.84;5035744;28;20449;-74
2023/07/24 05:27:05;;;;;;;;;;;;;;;16.57;100.00;100352.63;5035981;28;19917;-74
2023/07/24 05:29:30;;;;;;;;;;;;;;;16.59;100.00;100341.69;5036227;28;19921;-73
2023/07/24 05:31:55;;;;;;;;;;;;;;;16.61;100.00;100350.38;5036088;28;19923;-73
2023/07/24 05:34:20;;;;;;;;;;;;;;;16.60;100.00;100344.19;5036516;28;19940;-73
2023/07/24 05:36:46;;;;;;;;;;;;;;;16.62;100.00;100344.00;5036191;28;19921;-73
2023/07/24 05:39:11;;;;;;;;;;;;;;;16.61;100.00;100343.16;5036313;28;19917;-73
2023/07/24 05:41:36;;;;;;;;;;;;;;;16.64;100.00;100339.25;5036321;28;19977;-73
2023/07/24 05:44:01;;;;;;;;;;;;;;;16.65;100.00;100349.81;5017856;28;19971;-73
2023/07/24 05:46:27;;;;;;;;;;;;;;;16.68;100.00;100345.91;5035572;28;19921;-74
2023/07/24 05:48:52;;;;;;;;;;;;;;;16.69;100.00;100344.88;5035805;28;20341;-73
2023/07/24 05:51:17;;;;;;;;;;;;;;;16.71;100.00;100350.91;5018845;28;20341;-73
2023/07/24 05:53:42;;;;;;;;;;;;;;;16.74;100.00;100356.72;5035823;28;20273;-73
2023/07/24 05:56:08;;;;;;;;;;;;;;;16.77;100.00;100355.50;5035968;28;20270;-72
2023/07/24 05:58:33;;;;;;;;;;;;;;;16.86;100.00;100348.97;5035489;28;19975;-73
2023/07/24 06:00:58;;;;;;;;;;;;;;;16.95;100.00;100355.09;5017545;28;19958;-72
2023/07/24 06:03:24;;;;;;;;;;;;;;;17.01;100.00;100353.50;5017416;28;19917;-74
2023/07/24 06:05:53;;;;;;;;;;;;;;;17.01;100.00;100356.19;5035753;28;19920;-73
2023/07/24 06:08:19;;;;;;;;;;;;;;;17.03;100.00;100357.66;5035349;28;19913;-72
2023/07/24 06:10:46;;;;;;;;;;;;;;;17.04;100.00;100348.53;5035254;28;19921;-73
2023/07/24 06:13:11;;;;;;;;;;;;;;;17.06;100.00;100351.03;5018116;28;20273;-73
2023/07/24 06:15:36;;;;;;;;;;;;;;;17.11;100.00;100362.06;5035235;28;19921;-73
2023/07/24 06:18:01;;;;;;;;;;;;;;;17.12;100.00;100355.63;5017566;28;20361;-73
2023/07/24 06:20:27;;;;;;;;;;;;;;;17.18;100.00;100364.78;5035198;28;19941;-72
2023/07/24 06:22:52;;;;;;;;;;;;;;;17.26;100.00;100375.41;5035099;28;19996;-72
2023/07/24 06:25:17;;;;;;;;;;;;;;;17.24;100.00;100372.06;5035074;28;20028;-73
2023/07/24 06:27:42;;;;;;;;;;;;;;;17.28;100.00;100368.78;5034979;28;20361;-73
2023/07/24 06:30:07;;;;;;;;;;;;;;;17.30;100.00;100373.97;5034659;28;19959;-74
2023/07/24 06:32:33;;;;;;;;;;;;;;;17.35;100.00;100378.81;5017767;28;19924;-73
2023/07/24 06:34:58;;;;;;;;;;;;;;;17.42;100.00;100368.91;5035030;28;19917;-73
2023/07/24 06:37:23;;;;;;;;;;;;;;;17.54;100.00;100378.13;5034839;28;19920;-73
2023/07/24 06:39:49;;;;;;;;;;;;;;;17.68;100.00;100373.66;5034694;28;20365;-72
2023/07/24 06:42:14;;;;;;;;;;;;;;;17.78;100.00;100370.63;5017630;28;19924;-72
2023/07/24 06:44:39;;;;;;;;;;;;;;;17.82;100.00;100368.34;5017330;28;20011;-72
2023/07/24 06:47:04;;;;;;;;;;;;;;;17.81;100.00;100375.59;5034735;28;19975;-73
2023/07/24 06:49:30;;;;;;;;;;;;;;;17.82;100.00;100379.09;5034385;28;19971;-72
2023/07/24 06:51:55;;;;;;;;;;;;;;;17.88;100.00;100384.50;5034525;28;19921;-72
2023/07/24 06:54:20;;;;;;;;;;;;;;;17.98;100.00;100376.94;5033505;28;20015;-73
2023/07/24 06:56:45;;;;;;;;;;;;;;;18.06;100.00;100375.94;5034237;28;19924;-74
2023/07/24 06:59:11;;;;;;;;;;;;;;;18.07;100.00;100380.31;5034176;28;19917;-73
2023/07/24 07:01:36;;;;;;;;;;;;;;;18.09;100.00;100377.41;5034371;28;20262;-75
2023/07/24 07:04:01;;;;;;;;;;;;;;;18.10;100.00;100376.41;5034267;28;20373;-75
2023/07/24 07:06:26;;;;;;;;;;;;;;;18.14;100.00;100370.41;5034256;28;19917;-74
2023/07/24 07:08:51;;;;;;;;;;;;;;;18.31;100.00;100365.50;5033990;28;20293;-74
2023/07/24 07:11:17;;;;;;;;;;;;;;;18.49;100.00;100372.19;5034389;28;19917;-74
2023/07/24 07:13:42;;;;;;;;;;;;;;;18.58;100.00;100373.66;5033488;28;20012;-74
2023/07/24 07:16:07;;;;;;;;;;;;;;;18.56;100.00;100373.03;5034112;28;19988;-74
2023/07/24 07:18:33;;;;;;;;;;;;;;;18.51;100.00;100364.72;5016127;28;19924;-75
2023/07/24 07:20:58;;;;;;;;;;;;;;;18.43;100.00;100373.81;5034087;28;20353;-76
2023/07/24 07:23:23;;;;;;;;;;;;;;;18.38;100.00;100370.09;5033478;28;20301;-74
2023/07/24 07:25:50;;;;;;;;;;;;;;;18.36;100.00;100372.16;5033620;28;20012;-73
2023/07/24 07:28:16;;;;;;;;;;;;;;;18.42;100.00;100369.50;5033685;28;19935;-76
2023/07/24 07:30:42;;;;;;;;;;;;;;;18.50;100.00;100363.91;5034030;28;20404;-75
2023/07/24 07:33:07;;;;;;;;;;;;;;;18.47;100.00;100356.22;5033625;28;19917;-73
2023/07/24 07:35:33;;;;;;;;;;;;;;;18.55;100.00;100366.00;5033188;28;20366;-75
2023/07/24 07:37:58;;;;;;;;;;;;;;;18.67;100.00;100368.91;5015973;28;19963;-75
2023/07/24 07:40:23;;;;;;;;;;;;;;;18.71;100.00;100359.41;5015746;28;19913;-74
2023/07/24 07:42:49;;;;;;;;;;;;;;;18.96;100.00;100356.97;5033405;28;20396;-74
2023/07/24 07:45:14;;;;;;;;;;;;;;;19.32;100.00;100347.66;5015423;28;19921;-73
2023/07/24 07:47:39;;;;;;;;;;;;;;;19.70;100.00;100346.13;5033307;28;19950;-74
2023/07/24 07:50:05;;;;;;;;;;;;;;;19.94;100.00;100341.13;5033304;28;19917;-74
2023/07/24 07:52:30;;;;;;;;;;;;;;;20.29;100.00;100344.31;5033805;28;19953;-75
2023/07/24 07:54:55;;;;;;;;;;;;;;;20.55;100.00;100350.59;5033562;28;20341;-73
2023/07/24 07:57:20;;;;;;;;;;;;;;;20.61;100.00;100345.13;5033430;28;19913;-74
2023/07/24 07:59:46;;;;;;;;;;;;;;;20.44;100.00;100352.13;5033013;28;19921;-73
2023/07/24 08:02:11;;;;;;;;;;;;;;;20.25;100.00;100353.88;5033279;28;20412;-72
2023/07/24 08:04:36;;;;;;;;;;;;;;;20.06;100.00;100356.44;5033185;28;19921;-74
2023/07/24 08:07:02;;;;;;;;;;;;;;;20.06;100.00;100358.31;5036639;28;19913;-75
2023/07/24 08:09:27;;;;;;;;;;;;;;;20.11;100.00;100358.50;5036969;28;19913;-78
2023/07/24 08:11:53;;;;;;;;;;;;;;;20.00;100.00;100343.78;5037186;28;19996;-75
2023/07/24 08:14:18;;;;;;;;;;;;;;;20.00;100.00;100353.75;5019168;28;19924;-75
2023/07/24 08:16:43;;;;;;;;;;;;;;;19.79;100.00;100347.59;5037464;28;19924;-74
2023/07/24 08:19:08;;;;;;;;;;;;;;;19.53;100.00;100356.56;5037343;28;20375;-75
2023/07/24 08:21:34;;;;;;;;;;;;;;;19.35;100.00;100357.19;5036821;28;20385;-72
2023/07/24 08:23:59;;;;;;;;;;;;;;;19.29;100.00;100353.47;5036948;28;19917;-75
2023/07/24 08:26:26;;;;;;;;;;;;;;;19.27;100.00;100357.41;5036948;28;19959;-76
2023/07/24 08:28:51;;;;;;;;;;;;;;;19.36;100.00;100350.75;5037435;28;19951;-76
2023/07/24 08:31:16;;;;;;;;;;;;;;;19.41;100.00;100358.22;5036944;28;19968;-77
2023/07/24 08:33:41;;;;;;;;;;;;;;;19.45;100.00;100364.84;5018620;28;19917;-73
2023/07/24 08:36:07;;;;;;;;;;;;;;;19.34;100.00;100361.75;5019256;28;20008;-75
2023/07/24 08:38:33;;;;;;;;;;;;;;;19.23;100.00;100359.69;5037524;28;19917;-76
2023/07/24 08:41:04;;;;;;;;;;;;;;;19.08;100.00;100359.91;5037322;28;20258;-75
2023/07/24 08:43:33;;;;;;;;;;;;;;;19.01;100.00;100353.66;5037535;28;19953;-72
2023/07/24 08:46:02;;;;;;;;;;;;;;;19.01;100.00;100359.06;5036436;28;19921;-73
2023/07/24 08:48:36;;;;;;;;;;;;;;;19.08;100.00;100361.75;5037362;28;19920;-74
2023/07/24 08:51:11;;;;;;;;;;;;;;;19.10;100.00;100365.09;5037721;28;19920;-73
2023/07/24 08:53:38;;;;;;;;;;;;;;;19.22;100.00;100359.91;5036702;28;20377;-75
2023/07/24 08:56:04;;;;;;;;;;;;;;;19.37;100.00;100357.81;5036799;28;19939;-75
2023/07/24 08:58:29;;;;;;;;;;;;;;;19.58;100.00;100353.22;5036604;28;19917;-75
2023/07/24 09:00:56;;;;;;;;;;;;;;;19.68;100.00;100359.84;5036619;28;19917;-76
2023/07/24 09:03:21;;;;;;;;;;;;;;;19.81;100.00;100352.78;5019199;28;20003;-76
2023/07/24 09:05:46;;;;;;;;;;;;;;;20.12;100.00;100360.16;5036981;28;19948;-72
2023/07/24 09:08:12;;;;;;;;;;;;;;;20.85;100.00;100344.63;5036620;28;20440;-76
2023/07/24 09:10:37;;;;;;;;;;;;;;;21.25;100.00;100349.72;5037125;28;20384;-77
2023/07/24 09:13:03;;;;;;;;;;;;;;;21.42;100.00;100337.28;5036305;28;20012;-77
2023/07/24 09:15:29;;;;;;;;;;;;;;;21.72;100.00;100336.59;5018951;28;19949;-77
2023/07/24 09:17:55;;;;;;;;;;;;;;;22.06;100.00;100337.00;5035581;28;19963;-76
2023/07/24 09:20:20;;;;;;;;;;;;;;;22.24;100.00;100333.44;5037873;28;20353;-78
2023/07/24 09:22:52;;;;;;;;;;;;;;;22.00;100.00;100329.78;5036874;28;19921;-78
2023/07/24 09:25:17;;;;;;;;;;;;;;;21.41;100.00;100337.50;5036905;28;19948;-77
2023/07/24 09:27:43;;;;;;;;;;;;;;;20.64;100.00;100327.66;5037878;28;19917;-79
2023/07/24 09:30:13;;;;;;;;;;;;;;;20.22;100.00;100333.50;5038079;28;20349;-78
2023/07/24 09:32:38;;;;;;;;;;;;;;;19.92;100.00;100325.13;5037432;28;19913;-80
2023/07/24 09:35:04;;;;;;;;;;;;;;;19.60;100.00;100325.00;5036829;28;20020;-80
2023/07/24 09:37:31;;;;;;;;;;;;;;;19.41;100.00;100332.09;5036643;28;19921;-79
2023/07/24 09:39:56;;;;;;;;;;;;;;;19.28;100.00;100337.50;5036247;28;19989;-77
2023/07/24 09:42:31;;;;;;;;;;;;;;;19.20;100.00;100338.53;5036201;28;19917;-78
2023/07/24 09:44:57;;;;;;;;;;;;;;;19.16;100.00;100346.19;5037033;28;21237;-78
2023/07/24 09:47:22;;;;;;;;;;;;;;;19.15;100.00;100346.41;5037074;28;19920;-76
2023/07/24 09:49:47;;;;;;;;;;;;;;;19.30;100.00;100354.28;5035313;28;19948;-75
2023/07/24 09:52:14;;;;;;;;;;;;;;;19.41;100.00;100345.56;5035864;28;20371;-75
2023/07/24 09:54:47;;;;;;;;;;;;;;;19.53;100.00;100343.88;5036220;28;19913;-76
2023/07/24 09:57:13;;;;;;;;;;;;;;;19.60;100.00;100343.88;5036227;28;19981;-76
2023/07/24 09:59:38;;;;;;;;;;;;;;;19.74;100.00;100342.78;5035864;28;19917;-76
2023/07/24 10:02:05;;;;;;;;;;;;;;;19.87;100.00;100341.13;5035683;28;19984;-77
2023/07/24 10:04:31;;;;;;;;;;;;;;;20.11;100.00;100345.00;5017859;28;19917;-77
2023/07/24 10:06:57;;;;;;;;;;;;;;;20.73;100.00;100336.38;5035484;28;20015;-77
2023/07/24 10:09:23;;;;;;;;;;;;;;;21.78;100.00;100343.81;5035498;28;19948;-76
2023/07/24 10:11:49;;;;;;;;;;;;;;;22.26;100.00;100327.78;5017655;28;19972;-77
2023/07/24 10:14:14;;;;;;;;;;;;;;;22.09;100.00;100333.84;5017491;28;19917;-76
2023/07/24 10:16:40;;;;;;;;;;;;;;;22.02;100.00;100327.72;5035382;28;20020;-78
2023/07/24 10:19:15;;;;;;;;;;;;;;;21.98;100.00;100330.03;5035096;28;19917;-81
2023/07/24 10:21:45;;;;;;;;;;;;;;;22.65;100.00;100331.06;5035686;28;20356;-76
2023/07/24 10:24:10;;;;;;;;;;;;;;;23.83;100.00;100330.31;5016948;28;20357;-74
2023/07/24 10:26:36;;;;;;;;;;;;;;;24.58;100.00;100328.53;5035058;28;20075;-73
2023/07/24 10:29:01;;;;;;;;;;;;;;;24.77;100.00;100321.81;5034006;28;19924;-74
2023/07/24 10:31:27;;;;;;;;;;;;;;;24.72;100.00;100320.91;5017783;28;19917;-73
2023/07/24 10:33:53;;;;;;;;;;;;;;;24.46;97.11;100320.44;5034959;28;20031;-75
2023/07/24 10:36:19;;;;;;;;;;;;;;;23.47;100.00;100321.38;5035025;28;19913;-75
2023/07/24 10:38:45;;;;;;;;;;;;;;;22.97;100.00;100323.44;5034861;28;19916;-76
2023/07/24 10:41:11;;;;;;;;;;;;;;;23.55;100.00;100315.59;5034681;28;20403;-74
2023/07/24 10:43:44;;;;;;;;;;;;;;;23.86;100.00;100321.72;5034465;28;20356;-73
2023/07/24 10:46:09;;;;;;;;;;;;;;;24.14;100.00;100328.22;5016872;28;20016;-74
2023/07/24 10:48:35;;;;;;;;;;;;;;;23.37;100.00;100339.06;5034650;28;20372;-75
2023/07/24 10:51:08;;;;;;;;;;;;;;;22.54;100.00;100336.22;5062290;27;1943542;-73
2023/07/24 10:53:34;;;;;;;;;;;;;;;21.96;100.00;100340.28;5130605;28;20007;-75
2023/07/24 10:56:00;;;;;;;;;;;;;;;21.78;100.00;100343.81;5130639;28;19920;-76
2023/07/24 10:58:26;;;;;;;;;;;;;;;21.65;100.00;100343.94;5111710;28;19950;-76
2023/07/24 11:00:51;;;;;;;;;;;;;;;21.99;100.00;100347.94;5130749;28;19920;-76
2023/07/24 11:03:17;;;;;;;;;;;;;;;22.26;100.00;100342.19;5130466;28;20416;-77
2023/07/24 11:05:43;;;;;;;;;;;;;;;22.42;100.00;100348.06;5130543;28;20320;-76
2023/07/24 11:08:15;;;;;;;;;;;;;;;22.33;100.00;100340.25;5130591;28;20084;-77
2023/07/24 11:10:47;;;;;;;;;;;;;;;22.44;100.00;100348.66;5130028;28;20080;-77
2023/07/24 11:13:13;;;;;;;;;;;;;;;22.66;100.00;100351.66;5129997;28;19942;-76
2023/07/24 11:15:38;;;;;;;;;;;;;;;23.23;100.00;100353.97;5130492;28;20279;-76
2023/07/24 11:18:04;;;;;;;;;;;;;;;24.50;100.00;100351.50;5111739;28;19915;-76
2023/07/24 11:20:29;;;;;;;;;;;;;;;26.21;97.19;100361.22;5112345;28;19928;-77
2023/07/24 11:22:57;;;;;;;;;;;;;;;27.03;76.41;100355.78;5130017;28;20002;-78
2023/07/24 11:25:22;;;;;;;;;;;;;;;26.09;78.08;100355.91;5129974;28;19915;-75
2023/07/24 11:27:48;;;;;;;;;;;;;;;25.56;83.79;100355.47;5129886;28;19953;-77
2023/07/24 11:30:19;;;;;;;;;;;;;;;24.43;90.46;100361.69;5129618;28;20412;-77
2023/07/24 11:32:44;;;;;;;;;;;;;;;23.68;100.00;100369.66;5129920;28;19922;-77
2023/07/24 11:35:10;;;;;;;;;;;;;;;23.02;100.00;100366.13;5129240;28;19919;-77
2023/07/24 11:37:36;;;;;;;;;;;;;;;23.14;100.00;100375.19;5129697;28;19916;-76
2023/07/24 11:40:04;;;;;;;;;;;;;;;23.79;100.00;100365.25;5129721;28;20018;-75
2023/07/24 11:42:29;;;;;;;;;;;;;;;23.59;100.00;100374.59;5129325;28;19927;-75
2023/07/24 11:44:55;;;;;;;;;;;;;;;23.61;100.00;100374.38;5111408;28;19920;-76
2023/07/24 11:47:20;;;;;;;;;;;;;;;23.46;100.00;100377.56;5129343;28;19920;-76
2023/07/24 11:49:56;;;;;;;;;;;;;;;23.70;100.00;100375.66;5129390;28;19969;-79
2023/07/24 11:52:21;;;;;;;;;;;;;;;24.39;100.00;100371.41;5129313;28;19923;-76
2023/07/24 11:54:55;;;;;;;;;;;;;;;24.34;100.00;100366.69;5129631;28;19920;-77
2023/07/24 11:57:20;;;;;;;;;;;;;;;23.37;100.00;100371.66;5129602;28;19916;-76
2023/07/24 11:59:46;;;;;;;;;;;;;;;22.84;100.00;100372.47;5129519;28;20279;-76
2023/07/24 12:02:11;;;;;;;;;;;;;;;22.80;100.00;100380.25;5117059;28;20398;-76
2023/07/24 12:04:37;;;;;;;;;;;;;;;22.72;100.00;100380.56;5115703;28;19919;-76
2023/07/24 12:07:07;;;;;;;;;;;;;;;22.54;100.00;100381.44;5115974;28;20385;-76
2023/07/24 12:09:32;;;;;;;;;;;;;;;22.70;100.00;100379.97;5115722;28;19922;-77
2023/07/24 12:11:58;;;;;;;;;;;;;;;22.94;100.00;100378.16;5115401;28;19919;-76
2023/07/24 12:14:23;;;;;;;;;;;;;;;22.65;100.00;100382.56;5114981;28;20355;-76
2023/07/24 12:16:49;;;;;;;;;;;;;;;22.02;100.00;100380.00;5115436;28;20379;-76
2023/07/24 12:19:14;;;;;;;;;;;;;;;21.46;100.00;100392.59;5114919;28;19916;-77
2023/07/24 12:21:39;;;;;;;;;;;;;;;20.94;100.00;100392.81;5115252;28;20363;-77